South Bend, Indiana
Current Conditions -  °F | °C
As of 1:54 PM on Saturday 20 Dec 2014 (Local Time) from KSBN Reporting Station
Overcast Overcast  
Wind Chill: -3°   Ceiling: 2500
Heat Index:   Visibility: 10mi
Dew Point: -4°   Wind: 7mph
Humidity: 70%   Direction: 240°WSW
Pressure: 30.26"   Gusts: NA
Location:  41.68°N, 86.25°W
Report Text: KSBN 201854Z 24006KT 10SM OVC025 01/M04 A3026 RMK AO2 SLP255 T00061044
Loading
Personal Weather Stations






























Interactive Weather Map New forecast layout! Learn more

10-Day Weather Forecast

Advertisements
Track Severe Weather on mobile